Time;durP1;ratioP1;P1;durP2;ratioP2;P2;SDS_P1;SDS_P2;PMS_P1;PMS_P2;Temp;Humidity;BMP_temperature;BMP_pressure;BME280_temperature;BME280_humidity;BME280_pressure;Samples;Min_cycle;Max_cycle;Signal;HPM_P1;HPM_P2
2021/09/26 00:00:05;;;;;;;7.07;5.00;;;;;;;;;;5121616;28;20201;-61
2021/09/26 00:02:33;;;;;;;6.07;4.97;;;;;;;;;;5120919;28;20678;-61
2021/09/26 00:05:01;;;;;;;9.70;5.40;;;;;;;;;;5120969;28;20281;-62
2021/09/26 00:07:31;;;;;;;12.23;5.40;;;;;;;;;;5120236;28;20636;-62
2021/09/26 00:09:59;;;;;;;8.47;5.13;;;;;;;;;;5119416;28;20236;-62
2021/09/26 00:12:27;;;;;;;9.47;4.87;;;;;;;;;;5119807;28;20718;-61
2021/09/26 00:14:55;;;;;;;10.73;5.13;;;;;;;;;;5119416;28;20307;-62
2021/09/26 00:17:23;;;;;;;6.60;4.77;;;;;;;;;;5119509;28;20243;-62
2021/09/26 00:19:51;;;;;;;7.73;5.60;;;;;;;;;;5119561;28;20695;-62
2021/09/26 00:22:19;;;;;;;7.10;5.30;;;;;;;;;;5119426;28;20663;-62
2021/09/26 00:24:49;;;;;;;9.10;5.60;;;;;;;;;;5118850;28;20221;-60
2021/09/26 00:27:17;;;;;;;7.90;5.50;;;;;;;;;;5119767;28;20243;-61
2021/09/26 00:29:45;;;;;;;7.73;5.47;;;;;;;;;;5119699;28;20215;-60
2021/09/26 00:32:13;;;;;;;7.23;4.83;;;;;;;;;;5119430;28;20660;-61
2021/09/26 00:34:41;;;;;;;10.20;5.90;;;;;;;;;;5119586;28;20249;-60
2021/09/26 00:37:10;;;;;;;8.90;5.33;;;;;;;;;;5119690;28;20206;-60
2021/09/26 00:39:38;;;;;;;8.67;4.80;;;;;;;;;;5119068;28;20626;-60
2021/09/26 00:42:07;;;;;;;7.47;5.20;;;;;;;;;;5119367;28;20723;-61
2021/09/26 00:44:36;;;;;;;9.03;5.17;;;;;;;;;;5119114;28;20658;-60
2021/09/26 00:47:04;;;;;;;17.13;6.23;;;;;;;;;;5119237;28;20242;-59
2021/09/26 00:49:32;;;;;;;10.57;5.40;;;;;;;;;;5119293;28;20233;-61
2021/09/26 00:52:00;;;;;;;8.07;5.60;;;;;;;;;;5119305;28;20247;-61
2021/09/26 00:54:29;;;;;;;10.07;6.23;;;;;;;;;;5119114;28;20257;-61
2021/09/26 00:56:57;;;;;;;14.73;5.90;;;;;;;;;;5119013;28;20313;-61
2021/09/26 00:59:26;;;;;;;12.17;5.90;;;;;;;;;;5119425;28;20242;-61
2021/09/26 01:01:54;;;;;;;8.27;5.23;;;;;;;;;;5118861;28;20733;-61
2021/09/26 01:04:23;;;;;;;8.07;5.30;;;;;;;;;;5118929;28;20746;-61
2021/09/26 01:06:55;;;;;;;9.43;5.27;;;;;;;;;;5072491;28;1319074;-61
2021/09/26 01:09:27;;;;;;;8.37;5.07;;;;;;;;;;5119611;28;20619;-61
2021/09/26 01:11:57;;;;;;;6.43;5.33;;;;;;;;;;5119656;28;20302;-61
2021/09/26 01:14:33;;;;;;;9.13;5.23;;;;;;;;;;5120084;28;20266;-61
2021/09/26 01:17:03;;;;;;;5.50;4.50;;;;;;;;;;5119812;28;20284;-61
2021/09/26 01:19:39;;;;;;;6.53;4.60;;;;;;;;;;5119679;28;20272;-61
2021/09/26 01:22:11;;;;;;;11.00;5.13;;;;;;;;;;5119512;28;20570;-61
2021/09/26 01:24:55;;;;;;;9.33;5.40;;;;;;;;;;5119341;28;20306;-61
2021/09/26 01:27:29;;;;;;;9.10;5.87;;;;;;;;;;5119994;28;20210;-61
2021/09/26 01:30:15;;;;;;;8.53;5.23;;;;;;;;;;5119761;27;20296;-61
2021/09/26 01:32:47;;;;;;;7.63;5.60;;;;;;;;;;5119470;28;20676;-61
2021/09/26 01:35:16;;;;;;;7.63;6.30;;;;;;;;;;5119447;28;20287;-61
2021/09/26 01:37:46;;;;;;;7.27;5.33;;;;;;;;;;5118906;28;20210;-61
2021/09/26 01:40:26;;;;;;;5.13;4.50;;;;;;;;;;5119099;28;20285;-61
2021/09/26 01:42:57;;;;;;;6.23;4.33;;;;;;;;;;5119237;28;20291;-61
2021/09/26 01:45:28;;;;;;;7.10;4.40;;;;;;;;;;5118985;28;20664;-61
2021/09/26 01:48:01;;;;;;;8.50;4.27;;;;;;;;;;5119328;28;20295;-61
2021/09/26 01:50:31;;;;;;;3.90;3.60;;;;;;;;;;5119267;28;20284;-61
2021/09/26 01:52:59;;;;;;;5.90;4.20;;;;;;;;;;5119464;28;20269;-61
2021/09/26 01:55:28;;;;;;;6.93;4.23;;;;;;;;;;5118803;28;20312;-61
2021/09/26 01:57:57;;;;;;;4.83;4.33;;;;;;;;;;5118999;28;20583;-61
2021/09/26 02:00:25;;;;;;;4.97;4.47;;;;;;;;;;5118937;28;20205;-61
2021/09/26 02:02:53;;;;;;;5.57;4.23;;;;;;;;;;5118857;28;20687;-61
2021/09/26 02:05:23;;;;;;;5.60;4.50;;;;;;;;;;5118656;28;20591;-61
2021/09/26 02:07:53;;;;;;;6.50;4.70;;;;;;;;;;5118608;28;20654;-61
2021/09/26 02:10:21;;;;;;;5.73;4.73;;;;;;;;;;5118179;28;20236;-61
2021/09/26 02:12:50;;;;;;;6.00;4.17;;;;;;;;;;5118619;28;20289;-61
2021/09/26 02:15:19;;;;;;;5.23;4.37;;;;;;;;;;5118518;28;20780;-61
2021/09/26 02:17:48;;;;;;;5.37;4.63;;;;;;;;;;5118892;28;20237;-61
2021/09/26 02:20:17;;;;;;;8.07;5.07;;;;;;;;;;5118696;27;20268;-61
2021/09/26 02:22:47;;;;;;;7.90;4.90;;;;;;;;;;5118757;28;20283;-61
2021/09/26 02:25:16;;;;;;;5.93;4.77;;;;;;;;;;5118233;28;20233;-61
2021/09/26 02:27:44;;;;;;;9.60;5.80;;;;;;;;;;5118473;28;20288;-61
2021/09/26 02:30:12;;;;;;;7.53;4.90;;;;;;;;;;5118790;28;20355;-61
2021/09/26 02:32:40;;;;;;;5.70;5.13;;;;;;;;;;5118535;28;20239;-61
2021/09/26 02:35:09;;;;;;;7.77;5.20;;;;;;;;;;5118175;28;20648;-61
2021/09/26 02:37:37;;;;;;;10.37;5.43;;;;;;;;;;5118171;28;20326;-61
2021/09/26 02:40:08;;;;;;;7.00;5.13;;;;;;;;;;5118034;28;20218;-62
2021/09/26 02:42:39;;;;;;;6.90;5.27;;;;;;;;;;5118532;28;20262;-61
2021/09/26 02:45:10;;;;;;;9.27;5.97;;;;;;;;;;5118063;28;20232;-62
2021/09/26 02:47:39;;;;;;;10.80;6.50;;;;;;;;;;5118028;28;20211;-62
2021/09/26 02:50:07;;;;;;;9.00;5.83;;;;;;;;;;5118189;28;20637;-62
2021/09/26 02:52:36;;;;;;;8.00;5.97;;;;;;;;;;5118183;28;20209;-61
2021/09/26 02:55:05;;;;;;;6.93;5.83;;;;;;;;;;5117873;28;20303;-62
2021/09/26 02:57:35;;;;;;;7.60;5.93;;;;;;;;;;5118328;28;20232;-62
2021/09/26 03:00:04;;;;;;;9.00;6.53;;;;;;;;;;5118281;28;20236;-62
2021/09/26 03:02:32;;;;;;;9.60;5.80;;;;;;;;;;5118254;28;20243;-62
2021/09/26 03:05:00;;;;;;;6.10;5.50;;;;;;;;;;5117865;28;20315;-62
2021/09/26 03:07:29;;;;;;;6.43;5.73;;;;;;;;;;5117703;28;20334;-62
2021/09/26 03:09:58;;;;;;;8.00;5.87;;;;;;;;;;5117881;28;20224;-62
2021/09/26 03:12:26;;;;;;;6.50;5.80;;;;;;;;;;5117984;28;20630;-62
2021/09/26 03:14:56;;;;;;;10.20;6.27;;;;;;;;;;5117800;28;20303;-61
2021/09/26 03:17:24;;;;;;;6.23;5.37;;;;;;;;;;5118106;28;20292;-60
2021/09/26 03:19:52;;;;;;;7.80;5.47;;;;;;;;;;5117692;28;20660;-61
2021/09/26 03:22:20;;;;;;;8.80;6.60;;;;;;;;;;5117888;28;20284;-61
2021/09/26 03:24:48;;;;;;;6.60;5.90;;;;;;;;;;5117139;28;20664;-62
2021/09/26 03:27:16;;;;;;;8.70;6.27;;;;;;;;;;5118018;28;20292;-62
2021/09/26 03:29:44;;;;;;;8.20;6.23;;;;;;;;;;5117820;28;20636;-62
2021/09/26 03:32:13;;;;;;;9.93;6.90;;;;;;;;;;5117908;28;20247;-62
2021/09/26 03:34:42;;;;;;;7.53;6.23;;;;;;;;;;5117828;28;20232;-62
2021/09/26 03:37:10;;;;;;;8.10;6.20;;;;;;;;;;5114053;28;20718;-62
2021/09/26 03:39:38;;;;;;;6.83;5.77;;;;;;;;;;5117495;28;20672;-62
2021/09/26 03:42:06;;;;;;;7.57;6.60;;;;;;;;;;5117543;28;20280;-62
2021/09/26 03:44:35;;;;;;;7.50;6.17;;;;;;;;;;5117585;28;20222;-62
2021/09/26 03:47:03;;;;;;;8.43;5.83;;;;;;;;;;5117332;28;20280;-62
2021/09/26 03:49:33;;;;;;;8.53;6.40;;;;;;;;;;5111809;28;20228;-62
2021/09/26 03:52:01;;;;;;;10.70;6.90;;;;;;;;;;5112958;28;20260;-62
2021/09/26 03:54:29;;;;;;;8.20;6.63;;;;;;;;;;5117320;28;20225;-62
2021/09/26 03:56:57;;;;;;;9.10;6.60;;;;;;;;;;5117493;28;20236;-62
2021/09/26 03:59:25;;;;;;;9.37;6.27;;;;;;;;;;5118272;28;20349;-62
2021/09/26 04:01:53;;;;;;;8.50;5.53;;;;;;;;;;5120939;28;20668;-62
2021/09/26 04:04:21;;;;;;;8.53;6.20;;;;;;;;;;5120992;28;20707;-62
2021/09/26 04:06:51;;;;;;;9.97;6.40;;;;;;;;;;5121134;28;20264;-61
2021/09/26 04:09:19;;;;;;;12.30;6.60;;;;;;;;;;5120914;28;20715;-62
2021/09/26 04:11:47;;;;;;;8.33;6.10;;;;;;;;;;5121004;28;20679;-61
2021/09/26 04:14:15;;;;;;;10.23;6.33;;;;;;;;;;5121131;28;20228;-61
2021/09/26 04:16:43;;;;;;;7.50;5.93;;;;;;;;;;5120722;28;20232;-61
2021/09/26 04:19:11;;;;;;;7.20;5.57;;;;;;;;;;5121311;28;20292;-62
2021/09/26 04:21:39;;;;;;;8.17;5.13;;;;;;;;;;5120971;27;20200;-62
2021/09/26 04:24:09;;;;;;;6.83;5.13;;;;;;;;;;5120778;28;20312;-60
2021/09/26 04:26:37;;;;;;;6.43;5.77;;;;;;;;;;5121026;28;20231;-60
2021/09/26 04:29:05;;;;;;;8.03;5.67;;;;;;;;;;5121084;27;20236;-61
2021/09/26 04:31:33;;;;;;;6.93;5.40;;;;;;;;;;5120936;28;20239;-61
2021/09/26 04:34:02;;;;;;;11.27;6.10;;;;;;;;;;5120648;28;20718;-62
2021/09/26 04:36:30;;;;;;;6.23;5.20;;;;;;;;;;5120450;28;20587;-61
2021/09/26 04:38:58;;;;;;;8.53;5.87;;;;;;;;;;5120556;28;20243;-62
2021/09/26 04:41:27;;;;;;;7.60;6.10;;;;;;;;;;5120785;28;20291;-61
2021/09/26 04:43:55;;;;;;;6.33;5.50;;;;;;;;;;5120584;28;20312;-61
2021/09/26 04:46:23;;;;;;;8.30;5.93;;;;;;;;;;5120150;28;20735;-61
2021/09/26 04:48:51;;;;;;;7.27;6.10;;;;;;;;;;5120180;28;20223;-61
2021/09/26 04:51:19;;;;;;;7.00;5.50;;;;;;;;;;5118240;27;20623;-61
2021/09/26 04:53:47;;;;;;;7.13;5.83;;;;;;;;;;5140271;27;20726;-61
2021/09/26 04:56:15;;;;;;;8.83;5.87;;;;;;;;;;5141042;27;20290;-61
2021/09/26 04:58:45;;;;;;;6.60;4.97;;;;;;;;;;5140696;27;20238;-61
2021/09/26 05:01:13;;;;;;;7.30;5.60;;;;;;;;;;5140508;27;20283;-61
2021/09/26 05:03:41;;;;;;;7.33;5.57;;;;;;;;;;5140713;27;20245;-61
2021/09/26 05:06:09;;;;;;;6.20;5.13;;;;;;;;;;5140609;27;20319;-61
2021/09/26 05:08:37;;;;;;;5.87;5.17;;;;;;;;;;5140411;27;20212;-61
2021/09/26 05:11:05;;;;;;;7.57;5.23;;;;;;;;;;5139465;27;20267;-61
2021/09/26 05:13:33;;;;;;;7.40;5.10;;;;;;;;;;5140462;27;20208;-62
2021/09/26 05:16:03;;;;;;;7.43;5.63;;;;;;;;;;5140289;27;20628;-61
2021/09/26 05:18:31;;;;;;;6.90;5.30;;;;;;;;;;5140312;27;20693;-63
2021/09/26 05:20:59;;;;;;;7.77;5.40;;;;;;;;;;5127374;27;20241;-62
2021/09/26 05:23:27;;;;;;;8.50;6.10;;;;;;;;;;5119174;28;20735;-63
2021/09/26 05:25:55;;;;;;;8.23;6.33;;;;;;;;;;5119661;28;20285;-62
2021/09/26 05:28:23;;;;;;;8.23;5.87;;;;;;;;;;5119843;28;20236;-64
2021/09/26 05:30:51;;;;;;;8.20;6.27;;;;;;;;;;5119655;28;20258;-63
2021/09/26 05:33:21;;;;;;;11.00;5.73;;;;;;;;;;5119438;28;20544;-62
2021/09/26 05:35:49;;;;;;;6.43;5.63;;;;;;;;;;5119458;28;20613;-62
2021/09/26 05:38:17;;;;;;;7.80;5.23;;;;;;;;;;5119340;28;20683;-64
2021/09/26 05:40:45;;;;;;;9.63;5.17;;;;;;;;;;5119318;27;20291;-62
2021/09/26 05:43:13;;;;;;;5.90;5.30;;;;;;;;;;5118647;28;20243;-63
2021/09/26 05:45:41;;;;;;;7.97;5.17;;;;;;;;;;5119765;27;20213;-63
2021/09/26 05:48:10;;;;;;;8.73;6.00;;;;;;;;;;5120235;27;20766;-62
2021/09/26 05:50:39;;;;;;;8.70;5.50;;;;;;;;;;5118162;27;20203;-63
2021/09/26 05:53:08;;;;;;;7.20;5.40;;;;;;;;;;5118656;28;20645;-63
2021/09/26 05:55:36;;;;;;;6.27;5.20;;;;;;;;;;5118761;27;20232;-64
2021/09/26 05:58:04;;;;;;;7.77;5.50;;;;;;;;;;5119817;27;20572;-63
2021/09/26 06:00:32;;;;;;;7.33;5.30;;;;;;;;;;5120419;27;20831;-63
2021/09/26 06:03:00;;;;;;;7.30;6.23;;;;;;;;;;5118645;28;20204;-63
2021/09/26 06:05:29;;;;;;;9.30;5.73;;;;;;;;;;5118809;28;20217;-63
2021/09/26 06:07:58;;;;;;;6.27;4.97;;;;;;;;;;5118048;28;20348;-64
2021/09/26 06:10:26;;;;;;;6.80;5.60;;;;;;;;;;5121987;27;20284;-63
2021/09/26 06:12:54;;;;;;;7.40;5.83;;;;;;;;;;5121477;27;20276;-62
2021/09/26 06:15:22;;;;;;;6.57;5.53;;;;;;;;;;5116195;28;20217;-64
2021/09/26 06:17:50;;;;;;;6.67;5.97;;;;;;;;;;5118843;27;20244;-63
2021/09/26 06:20:18;;;;;;;7.60;5.37;;;;;;;;;;5119761;27;20232;-64
2021/09/26 06:22:46;;;;;;;8.07;6.00;;;;;;;;;;5118653;27;20625;-63
2021/09/26 06:25:16;;;;;;;6.73;5.63;;;;;;;;;;5119402;27;20252;-62
2021/09/26 06:27:44;;;;;;;8.53;6.30;;;;;;;;;;5118585;28;20311;-63
2021/09/26 06:30:12;;;;;;;8.10;5.70;;;;;;;;;;5118690;28;20288;-63
2021/09/26 06:32:41;;;;;;;7.70;6.67;;;;;;;;;;5118252;28;20634;-62
2021/09/26 06:35:09;;;;;;;8.67;6.17;;;;;;;;;;5114892;28;20249;-64
2021/09/26 06:37:37;;;;;;;9.43;7.07;;;;;;;;;;5104736;28;20193;-62
2021/09/26 06:40:06;;;;;;;8.77;6.47;;;;;;;;;;5105778;28;20193;-63
2021/09/26 06:42:36;;;;;;;10.23;6.67;;;;;;;;;;5111719;28;20284;-63
2021/09/26 06:45:04;;;;;;;8.70;6.00;;;;;;;;;;5118398;28;20359;-63
2021/09/26 06:47:33;;;;;;;6.93;6.17;;;;;;;;;;5118070;28;20250;-63
2021/09/26 06:50:01;;;;;;;6.40;5.30;;;;;;;;;;5118176;28;20228;-63
2021/09/26 06:52:29;;;;;;;7.93;6.57;;;;;;;;;;5117949;28;20243;-63
2021/09/26 06:54:57;;;;;;;8.23;6.20;;;;;;;;;;5117637;28;20268;-63
2021/09/26 06:57:25;;;;;;;9.10;6.93;;;;;;;;;;5114091;28;20229;-63
2021/09/26 06:59:55;;;;;;;10.30;6.67;;;;;;;;;;5106528;28;20225;-63
2021/09/26 07:02:23;;;;;;;10.17;6.87;;;;;;;;;;5104197;28;20244;-64
2021/09/26 07:04:53;;;;;;;9.50;6.73;;;;;;;;;;5105678;28;20219;-64
2021/09/26 07:07:23;;;;;;;8.63;7.10;;;;;;;;;;5104267;28;20310;-61
2021/09/26 07:09:51;;;;;;;9.33;7.17;;;;;;;;;;5103620;28;20232;-62
2021/09/26 07:12:19;;;;;;;9.57;6.60;;;;;;;;;;5103535;28;20288;-63
2021/09/26 07:14:47;;;;;;;9.73;6.77;;;;;;;;;;5104949;28;20260;-62
2021/09/26 07:17:18;;;;;;;8.50;7.43;;;;;;;;;;5106683;28;20275;-64
2021/09/26 07:19:47;;;;;;;11.03;7.73;;;;;;;;;;5107116;28;20739;-63
2021/09/26 07:22:19;;;;;;;8.90;7.07;;;;;;;;;;5105173;28;20235;-63
2021/09/26 07:24:47;;;;;;;10.27;7.93;;;;;;;;;;5112249;28;20361;-63
2021/09/26 07:27:17;;;;;;;8.57;7.00;;;;;;;;;;5117362;28;20596;-63
2021/09/26 07:29:46;;;;;;;13.07;8.50;;;;;;;;;;5110775;28;20287;-63
2021/09/26 07:32:14;;;;;;;12.00;9.00;;;;;;;;;;5137938;27;20243;-63
2021/09/26 07:34:44;;;;;;;9.13;7.50;;;;;;;;;;5139266;27;20230;-63
2021/09/26 07:37:12;;;;;;;16.60;8.97;;;;;;;;;;5141992;27;20249;-63
2021/09/26 07:39:40;;;;;;;11.43;8.63;;;;;;;;;;5141889;27;20239;-63
2021/09/26 07:42:09;;;;;;;11.90;8.20;;;;;;;;;;5123048;27;20288;-64
2021/09/26 07:44:37;;;;;;;9.63;8.23;;;;;;;;;;5121590;28;20285;-64
2021/09/26 07:47:05;;;;;;;13.77;8.53;;;;;;;;;;5121131;27;20649;-64
2021/09/26 07:49:34;;;;;;;11.00;8.43;;;;;;;;;;5121076;28;20254;-64
2021/09/26 07:52:04;;;;;;;12.23;8.47;;;;;;;;;;5121402;28;20236;-65
2021/09/26 07:54:32;;;;;;;14.77;8.80;;;;;;;;;;5121095;28;20253;-64
2021/09/26 07:57:00;;;;;;;12.33;9.10;;;;;;;;;;5121378;28;20201;-64
2021/09/26 07:59:28;;;;;;;12.33;8.27;;;;;;;;;;5121147;28;20243;-64
2021/09/26 08:01:56;;;;;;;10.97;8.13;;;;;;;;;;5117751;28;20282;-64
2021/09/26 08:04:25;;;;;;;13.67;9.03;;;;;;;;;;5108060;28;20656;-64
2021/09/26 08:06:53;;;;;;;11.77;8.80;;;;;;;;;;5108193;28;20632;-63
2021/09/26 08:09:22;;;;;;;9.93;8.80;;;;;;;;;;5107811;28;20205;-64
2021/09/26 08:11:51;;;;;;;13.67;9.70;;;;;;;;;;5107487;28;20201;-65
2021/09/26 08:14:19;;;;;;;10.47;8.93;;;;;;;;;;5110299;28;20248;-64
2021/09/26 08:16:47;;;;;;;13.33;8.73;;;;;;;;;;5107025;28;20281;-64
2021/09/26 08:19:15;;;;;;;10.70;8.77;;;;;;;;;;5107088;28;20838;-64
2021/09/26 08:21:43;;;;;;;11.77;8.90;;;;;;;;;;5110202;28;20291;-64
2021/09/26 08:24:11;;;;;;;10.10;7.97;;;;;;;;;;5106594;28;20643;-64
2021/09/26 08:26:41;;;;;;;11.10;8.80;;;;;;;;;;5105944;28;20276;-64
2021/09/26 08:29:09;;;;;;;10.80;8.50;;;;;;;;;;5108154;28;20276;-64
2021/09/26 08:31:37;;;;;;;12.43;9.37;;;;;;;;;;5118086;28;20258;-64
2021/09/26 08:34:05;;;;;;;12.63;9.13;;;;;;;;;;5120434;28;20256;-64
2021/09/26 08:36:33;;;;;;;9.80;8.30;;;;;;;;;;5120295;28;20668;-64
2021/09/26 08:39:02;;;;;;;13.23;9.20;;;;;;;;;;5120194;28;20284;-64
2021/09/26 08:41:31;;;;;;;11.80;8.83;;;;;;;;;;5120329;27;20239;-64
2021/09/26 08:44:00;;;;;;;11.93;8.10;;;;;;;;;;5119974;28;20327;-64
2021/09/26 08:46:29;;;;;;;10.27;8.53;;;;;;;;;;5119742;28;20291;-64
2021/09/26 08:48:57;;;;;;;9.47;8.30;;;;;;;;;;5110955;28;20232;-65
2021/09/26 08:51:25;;;;;;;14.07;8.37;;;;;;;;;;5105867;28;20209;-63
2021/09/26 08:53:53;;;;;;;10.80;7.90;;;;;;;;;;5108060;28;20252;-64
2021/09/26 08:56:22;;;;;;;11.60;8.20;;;;;;;;;;5100717;28;20248;-63
2021/09/26 08:58:52;;;;;;;12.20;9.03;;;;;;;;;;5107492;28;20627;-64
2021/09/26 09:01:22;;;;;;;10.77;8.60;;;;;;;;;;5105800;28;20229;-63
2021/09/26 09:03:50;;;;;;;12.13;8.47;;;;;;;;;;5107506;28;20228;-64
2021/09/26 09:06:19;;;;;;;11.20;8.63;;;;;;;;;;5106777;28;20284;-63
2021/09/26 09:08:47;;;;;;;11.73;8.90;;;;;;;;;;5110963;28;20347;-64
2021/09/26 09:11:21;;;;;;;12.47;8.40;;;;;;;;;;5108800;28;20664;-63
2021/09/26 09:13:58;;;;;;;11.33;8.70;;;;;;;;;;5117816;27;20560;-63
2021/09/26 09:16:31;;;;;;;10.53;8.37;;;;;;;;;;5115443;27;20228;-63
2021/09/26 09:19:00;;;;;;;11.30;8.43;;;;;;;;;;5119692;28;20575;-63
2021/09/26 09:21:30;;;;;;;9.97;8.97;;;;;;;;;;5119364;28;20240;-63
2021/09/26 09:24:14;;;;;;;13.50;9.23;;;;;;;;;;5119089;28;20228;-62
2021/09/26 09:26:43;;;;;;;12.83;8.73;;;;;;;;;;5119322;28;20303;-61
2021/09/26 09:29:11;;;;;;;13.03;8.80;;;;;;;;;;5119397;28;20225;-61
2021/09/26 09:31:51;;;;;;;13.67;9.90;;;;;;;;;;5119183;27;20206;-63
2021/09/26 09:34:29;;;;;;;13.60;8.77;;;;;;;;;;5119402;28;20311;-61
2021/09/26 09:37:14;;;;;;;10.97;8.93;;;;;;;;;;5119263;27;20259;-63
2021/09/26 09:39:43;;;;;;;10.67;8.50;;;;;;;;;;5119130;28;20235;-62
2021/09/26 09:42:18;;;;;;;13.87;8.93;;;;;;;;;;5119224;28;20292;-63
2021/09/26 09:44:46;;;;;;;11.40;8.70;;;;;;;;;;5119048;28;20782;-63
2021/09/26 09:47:21;;;;;;;11.63;9.17;;;;;;;;;;5118778;28;20208;-63
2021/09/26 09:49:53;;;;;;;10.90;8.50;;;;;;;;;;5118704;28;20281;-63
2021/09/26 09:52:40;;;;;;;8.97;8.03;;;;;;;;;;5118982;28;20209;-63
2021/09/26 09:55:08;;;;;;;9.23;7.90;;;;;;;;;;5118232;28;20278;-63
2021/09/26 09:57:36;;;;;;;13.13;8.10;;;;;;;;;;5118347;28;20232;-63
2021/09/26 10:00:17;;;;;;;9.27;7.70;;;;;;;;;;5118793;28;20245;-63
2021/09/26 10:02:47;;;;;;;9.60;7.50;;;;;;;;;;5118640;28;20287;-63
2021/09/26 10:05:31;;;;;;;9.90;8.70;;;;;;;;;;5118287;28;20712;-63
2021/09/26 10:07:59;;;;;;;10.93;8.13;;;;;;;;;;5118083;28;20272;-62
2021/09/26 10:10:31;;;;;;;9.23;7.37;;;;;;;;;;5118027;28;20292;-62
2021/09/26 10:13:09;;;;;;;9.30;8.27;;;;;;;;;;5118533;28;20290;-64
2021/09/26 10:15:38;;;;;;;10.53;8.20;;;;;;;;;;5107238;28;20255;-64
2021/09/26 10:18:08;;;;;;;12.37;8.43;;;;;;;;;;5117205;28;20644;-65
2021/09/26 10:20:36;;;;;;;10.80;8.33;;;;;;;;;;5115221;28;20565;-63
2021/09/26 10:23:04;;;;;;;9.87;7.77;;;;;;;;;;5119546;27;20235;-64
2021/09/26 10:25:32;;;;;;;9.77;7.97;;;;;;;;;;5116917;28;20252;-63
2021/09/26 10:28:01;;;;;;;12.73;9.67;;;;;;;;;;5105631;28;20255;-63
2021/09/26 10:30:29;;;;;;;9.73;8.77;;;;;;;;;;5105900;28;20261;-63
2021/09/26 10:32:59;;;;;;;9.43;8.27;;;;;;;;;;5102760;28;20197;-63
2021/09/26 10:35:29;;;;;;;11.30;8.90;;;;;;;;;;5105706;28;20711;-61
2021/09/26 10:37:57;;;;;;;11.70;8.70;;;;;;;;;;5103665;28;20208;-60
2021/09/26 10:40:25;;;;;;;10.60;7.90;;;;;;;;;;5108329;28;20201;-60
2021/09/26 10:42:53;;;;;;;10.53;9.20;;;;;;;;;;5117518;28;20280;-62
2021/09/26 10:45:25;;;;;;;13.30;9.27;;;;;;;;;;5118464;28;20284;-61
2021/09/26 10:47:54;;;;;;;11.50;8.20;;;;;;;;;;5118120;28;20683;-61
2021/09/26 10:50:33;;;;;;;9.57;8.43;;;;;;;;;;5118320;28;20201;-61
2021/09/26 10:53:08;;;;;;;9.90;8.67;;;;;;;;;;5118111;28;20239;-63
2021/09/26 10:55:36;;;;;;;10.63;8.27;;;;;;;;;;5117699;28;20311;-62
2021/09/26 10:58:20;;;;;;;11.90;8.53;;;;;;;;;;5118410;28;20236;-60
2021/09/26 11:00:56;;;;;;;9.50;7.97;;;;;;;;;;5117858;28;20236;-60
2021/09/26 11:03:33;;;;;;;11.80;8.70;;;;;;;;;;5118115;28;20210;-60
2021/09/26 11:06:22;;;;;;;9.93;8.43;;;;;;;;;;5118016;28;20236;-60
2021/09/26 11:08:54;;;;;;;9.43;8.43;;;;;;;;;;5119199;28;20650;-60
2021/09/26 11:11:33;;;;;;;11.57;9.03;;;;;;;;;;5122390;28;20291;-60
2021/09/26 11:14:01;;;;;;;9.13;8.23;;;;;;;;;;5122084;28;20264;-61
2021/09/26 11:16:48;;;;;;;11.27;9.23;;;;;;;;;;5122073;28;20234;-60
2021/09/26 11:19:16;;;;;;;10.87;8.80;;;;;;;;;;5120421;27;20228;-64
2021/09/26 11:22:12;;;;;;;10.23;8.57;;;;;;;;;;5108193;28;20201;-63
2021/09/26 11:24:56;;;;;;;11.03;8.70;;;;;;;;;;5089925;28;20706;-61
2021/09/26 11:27:32;;;;;;;9.80;8.73;;;;;;;;;;5112328;28;20200;-61
2021/09/26 11:30:11;;;;;;;12.27;9.27;;;;;;;;;;5107203;28;20300;-63
2021/09/26 11:32:40;;;;;;;11.07;9.83;;;;;;;;;;5110503;28;20197;-63
2021/09/26 11:35:22;;;;;;;10.30;9.13;;;;;;;;;;5109134;28;20228;-63
2021/09/26 11:37:54;;;;;;;11.73;9.00;;;;;;;;;;5118716;28;20232;-64
2021/09/26 11:40:43;;;;;;;10.67;8.87;;;;;;;;;;5121792;28;20239;-62
2021/09/26 11:43:15;;;;;;;10.17;8.60;;;;;;;;;;5119349;28;20193;-63
2021/09/26 11:45:43;;;;;;;10.87;9.70;;;;;;;;;;5106600;28;20297;-61
2021/09/26 11:48:11;;;;;;;11.03;9.70;;;;;;;;;;5108247;28;20309;-61
2021/09/26 11:50:41;;;;;;;11.00;8.97;;;;;;;;;;5115513;27;20256;-63
2021/09/26 11:53:09;;;;;;;9.77;8.73;;;;;;;;;;5113407;27;20196;-61
2021/09/26 11:55:39;;;;;;;10.07;9.03;;;;;;;;;;5140162;27;20328;-61
2021/09/26 11:58:08;;;;;;;9.47;8.47;;;;;;;;;;5121030;28;20672;-60
2021/09/26 12:00:38;;;;;;;10.27;8.87;;;;;;;;;;5121376;28;20253;-61
2021/09/26 12:03:14;;;;;;;9.20;8.30;;;;;;;;;;5120957;28;20207;-63
2021/09/26 12:05:42;;;;;;;9.50;8.50;;;;;;;;;;5121142;27;20231;-63
2021/09/26 12:08:11;;;;;;;12.40;8.53;;;;;;;;;;5116406;28;20236;-69
2021/09/26 12:10:44;;;;;;;10.20;8.63;;;;;;;;;;5107022;28;20220;-64
2021/09/26 12:13:17;;;;;;;10.70;9.57;;;;;;;;;;5108028;28;20205;-63
2021/09/26 12:15:46;;;;;;;12.60;10.23;;;;;;;;;;5109095;28;20221;-62
2021/09/26 12:18:24;;;;;;;11.27;8.77;;;;;;;;;;5103188;28;20516;-63
2021/09/26 12:21:04;;;;;;;10.23;8.33;;;;;;;;;;5111265;28;20216;-63
2021/09/26 12:23:45;;;;;;;10.57;8.47;;;;;;;;;;5120678;28;20305;-65
2021/09/26 12:26:13;;;;;;;11.90;8.33;;;;;;;;;;5120867;28;20291;-64
2021/09/26 12:28:42;;;;;;;10.17;8.80;;;;;;;;;;5120378;27;20239;-65
2021/09/26 12:31:10;;;;;;;8.77;7.90;;;;;;;;;;5120598;28;20315;-64
2021/09/26 12:33:42;;;;;;;9.33;8.20;;;;;;;;;;5120053;28;20279;-64
2021/09/26 12:36:12;;;;;;;10.03;8.83;;;;;;;;;;5119958;28;20675;-64
2021/09/26 12:38:42;;;;;;;8.30;7.40;;;;;;;;;;5119569;28;20294;-64
2021/09/26 12:41:13;;;;;;;8.77;7.93;;;;;;;;;;5120295;27;20209;-63
2021/09/26 12:43:48;;;;;;;9.13;8.23;;;;;;;;;;5120358;28;20236;-63
2021/09/26 12:46:17;;;;;;;11.20;7.33;;;;;;;;;;5135610;27;20236;-63
2021/09/26 12:48:47;;;;;;;8.67;7.77;;;;;;;;;;5140806;27;20207;-63
2021/09/26 12:51:18;;;;;;;10.47;8.63;;;;;;;;;;5120872;27;20314;-63
2021/09/26 12:53:47;;;;;;;13.20;9.60;;;;;;;;;;5120017;28;20321;-63
2021/09/26 12:56:18;;;;;;;10.57;9.07;;;;;;;;;;5120117;28;20234;-63
2021/09/26 12:58:48;;;;;;;10.50;8.07;;;;;;;;;;5120008;28;20306;-63
2021/09/26 13:01:23;;;;;;;10.33;8.83;;;;;;;;;;5120008;28;20232;-63
2021/09/26 13:03:53;;;;;;;9.77;8.30;;;;;;;;;;5119968;28;20230;-61
2021/09/26 13:06:26;;;;;;;10.37;9.07;;;;;;;;;;5119670;28;20206;-64
2021/09/26 13:08:55;;;;;;;10.73;8.93;;;;;;;;;;5119716;28;20239;-63
2021/09/26 13:11:33;;;;;;;9.87;8.30;;;;;;;;;;5119601;28;20258;-64
2021/09/26 13:14:08;;;;;;;9.10;8.20;;;;;;;;;;5119834;27;20306;-63
2021/09/26 13:16:39;;;;;;;9.50;8.03;;;;;;;;;;5127612;27;20231;-63
2021/09/26 13:19:24;;;;;;;10.80;8.00;;;;;;;;;;5140283;27;20237;-64
2021/09/26 13:22:04;;;;;;;8.87;7.77;;;;;;;;;;5139820;27;20210;-63
2021/09/26 13:24:32;;;;;;;9.60;8.50;;;;;;;;;;5134477;27;20217;-63
2021/09/26 13:27:15;;;;;;;9.23;7.97;;;;;;;;;;5119566;28;20286;-63
2021/09/26 13:29:43;;;;;;;9.03;7.93;;;;;;;;;;5119071;28;20330;-63
2021/09/26 13:32:20;;;;;;;8.20;7.37;;;;;;;;;;5118364;28;20228;-63
2021/09/26 13:34:56;;;;;;;9.17;7.43;;;;;;;;;;5119645;28;20311;-64
2021/09/26 13:37:24;;;;;;;8.30;7.37;;;;;;;;;;5119207;28;20642;-64
2021/09/26 13:39:54;;;;;;;8.50;7.63;;;;;;;;;;5119061;28;20204;-62
2021/09/26 13:42:29;;;;;;;8.90;7.37;;;;;;;;;;5119310;28;20210;-64
2021/09/26 13:44:59;;;;;;;10.37;8.03;;;;;;;;;;5112340;27;20259;-64
2021/09/26 13:47:27;;;;;;;9.27;7.37;;;;;;;;;;5137625;27;20232;-65
2021/09/26 13:49:56;;;;;;;8.77;7.87;;;;;;;;;;5131008;27;20284;-65
2021/09/26 13:52:24;;;;;;;9.00;7.50;;;;;;;;;;5118877;28;20748;-64
2021/09/26 13:54:53;;;;;;;9.07;7.60;;;;;;;;;;5118586;28;20632;-65
2021/09/26 13:57:21;;;;;;;8.60;7.27;;;;;;;;;;5119159;28;20217;-65
2021/09/26 13:59:51;;;;;;;8.13;7.33;;;;;;;;;;5118657;28;20237;-63
2021/09/26 14:02:19;;;;;;;9.37;7.27;;;;;;;;;;5118910;28;20285;-65
2021/09/26 14:04:48;;;;;;;12.70;7.53;;;;;;;;;;5118311;28;20260;-64
2021/09/26 14:07:16;;;;;;;8.57;7.67;;;;;;;;;;5118588;28;20276;-63
2021/09/26 14:09:44;;;;;;;9.23;7.93;;;;;;;;;;5118409;28;20233;-63
2021/09/26 14:12:13;;;;;;;9.10;7.23;;;;;;;;;;5118584;28;20246;-65
2021/09/26 14:14:44;;;;;;;11.57;7.20;;;;;;;;;;5118777;28;20262;-67
2021/09/26 14:17:14;;;;;;;9.13;8.00;;;;;;;;;;5118471;28;20239;-65
2021/09/26 14:19:43;;;;;;;10.03;7.63;;;;;;;;;;5118271;28;20241;-65
2021/09/26 14:22:14;;;;;;;8.83;7.70;;;;;;;;;;5118286;28;20203;-63
2021/09/26 14:24:42;;;;;;;8.60;7.23;;;;;;;;;;5118166;27;20296;-63
2021/09/26 14:27:10;;;;;;;11.40;7.60;;;;;;;;;;5118616;28;20209;-65
2021/09/26 14:29:39;;;;;;;8.47;7.60;;;;;;;;;;5118233;27;20639;-65
2021/09/26 14:32:07;;;;;;;10.13;8.30;;;;;;;;;;5138610;27;20261;-64
2021/09/26 14:34:37;;;;;;;10.70;7.57;;;;;;;;;;5138837;27;20282;-64
2021/09/26 14:37:05;;;;;;;9.47;7.23;;;;;;;;;;5139105;27;20251;-65
2021/09/26 14:39:33;;;;;;;11.93;7.87;;;;;;;;;;5138285;27;20268;-65
2021/09/26 14:42:03;;;;;;;8.90;7.30;;;;;;;;;;5138835;27;20202;-64
2021/09/26 14:44:31;;;;;;;8.37;7.33;;;;;;;;;;5138184;27;20262;-63
2021/09/26 14:47:00;;;;;;;8.70;7.30;;;;;;;;;;5138646;27;20293;-65
2021/09/26 14:49:28;;;;;;;8.13;7.30;;;;;;;;;;5133897;27;20245;-63
2021/09/26 14:51:58;;;;;;;8.70;7.80;;;;;;;;;;5117957;28;20317;-64
2021/09/26 14:54:26;;;;;;;9.50;7.37;;;;;;;;;;5117599;28;20750;-64